Time;durP1;ratioP1;P1;durP2;ratioP2;P2;SDS_P1;SDS_P2;PMS_P1;PMS_P2;Temp;Humidity;BMP_temperature;BMP_pressure;BME280_temperature;BME280_humidity;BME280_pressure;Samples;Min_cycle;Max_cycle;Signal;HPM_P1;HPM_P2
2023/01/17 00:01:23;;;;;;;1.30;0.87;;;;;;;6.74;55.16;94945.06;8316529;28;20219;-73
2023/01/17 00:09:55;;;;;;;0.80;0.77;;;;;;;6.63;54.76;94958.75;8314976;28;20242;-73
2023/01/17 00:13:59;;;;;;;2.20;1.00;;;;;;;6.54;54.61;94960.25;8315814;28;20230;-73
2023/01/17 00:18:02;;;;;;;2.10;0.90;;;;;;;6.60;54.63;94967.50;8315664;28;20226;-73
2023/01/17 00:26:31;;;;;;;1.13;0.93;;;;;;;6.92;54.55;94981.41;8315677;28;20239;-72
2023/01/17 01:34:34;;;;;;;1.00;0.80;;;;;;;6.30;49.98;94968.06;8313781;28;20513;-72
2023/01/17 01:38:37;;;;;;;2.30;0.80;;;;;;;6.70;49.38;95023.38;8313813;28;20249;-72
2023/01/17 01:42:48;;;;;;;1.03;0.83;;;;;;;6.38;49.34;95022.31;8313513;28;20241;-72
2023/01/17 01:46:52;;;;;;;1.47;0.90;;;;;;;6.45;49.08;95043.22;8313096;28;20222;-72
2023/01/17 01:50:55;;;;;;;1.23;0.80;;;;;;;6.47;49.08;95054.22;8313551;28;20244;-72
2023/01/17 01:55:01;;;;;;;2.30;0.83;;;;;;;6.64;49.01;95053.78;8313436;28;20230;-72
2023/01/17 01:59:04;;;;;;;2.60;1.00;;;;;;;6.60;49.10;95064.41;8313546;28;20226;-72
2023/01/17 02:03:11;;;;;;;1.60;0.83;;;;;;;6.84;48.71;95054.84;8313300;28;20394;-73
2023/01/17 02:07:17;;;;;;;1.87;1.00;;;;;;;6.62;49.19;95039.41;8312893;28;20234;-72
2023/01/17 02:11:21;;;;;;;2.30;1.10;;;;;;;6.91;48.90;95056.94;8313283;28;20234;-72
2023/01/17 02:15:30;;;;;;;2.17;1.03;;;;;;;6.67;49.82;95063.03;8313226;28;20229;-72
2023/01/17 02:20:16;;;;;;;0.87;0.80;;;;;;;6.83;49.01;95068.66;8313004;28;20281;-72
2023/01/17 02:24:34;;;;;;;1.50;1.10;;;;;;;6.81;49.90;95072.25;8312667;28;20222;-72
2023/01/17 02:28:47;;;;;;;1.07;0.97;;;;;;;6.92;49.31;95063.75;8313143;28;20445;-72
2023/01/17 02:32:59;;;;;;;3.83;0.97;;;;;;;6.69;50.00;95066.28;8315809;28;20522;-72
2023/01/17 02:37:06;;;;;;;1.23;1.10;;;;;;;6.62;50.09;95071.06;8319273;28;20253;-72
2023/01/17 02:41:13;;;;;;;1.60;1.20;;;;;;;6.78;49.68;95073.31;8318954;28;20233;-72
2023/01/17 02:45:17;;;;;;;1.70;1.20;;;;;;;6.62;49.47;95075.41;8319070;28;20230;-73
2023/01/17 02:49:28;;;;;;;1.70;1.00;;;;;;;6.38;49.02;95065.19;8318696;28;20230;-72
2023/01/17 02:53:41;;;;;;;1.77;1.00;;;;;;;6.14;48.66;95060.91;8318597;28;20456;-72
2023/01/17 02:58:07;;;;;;;1.30;1.00;;;;;;;6.67;48.32;95073.31;8318107;28;20237;-72
2023/01/17 03:02:16;;;;;;;1.33;1.17;;;;;;;6.65;48.24;95086.28;8310599;28;20237;-72
2023/01/17 03:06:24;;;;;;;1.30;1.20;;;;;;;6.46;47.88;95091.16;8318240;28;20302;-72
2023/01/17 03:10:27;;;;;;;1.37;0.90;;;;;;;6.43;47.40;95078.50;8318182;28;20230;-72
2023/01/17 03:14:30;;;;;;;2.73;1.10;;;;;;;6.59;47.47;95104.75;8317979;28;20521;-72
2023/01/17 03:18:33;;;;;;;1.80;0.97;;;;;;;6.52;47.46;95115.59;8317926;28;20225;-72
2023/01/17 03:22:37;;;;;;;2.27;1.30;;;;;;;6.70;47.34;95128.81;8317749;28;20222;-72
2023/01/17 03:26:43;;;;;;;1.70;1.30;;;;;;;6.47;47.71;95128.75;8317735;28;20235;-72
2023/01/17 03:30:46;;;;;;;1.90;1.10;;;;;;;6.36;48.57;95133.88;8317130;28;20424;-72
2023/01/17 03:34:49;;;;;;;1.93;1.20;;;;;;;6.46;47.71;95133.09;8317060;28;20233;-72
2023/01/17 03:38:54;;;;;;;2.67;1.30;;;;;;;6.72;47.02;95134.66;8317251;28;20250;-72
2023/01/17 03:42:56;;;;;;;1.40;1.10;;;;;;;6.59;47.56;95135.59;8316026;28;20583;-72
2023/01/17 03:46:59;;;;;;;2.83;1.20;;;;;;;6.61;47.08;95144.00;8316859;28;20249;-72
2023/01/17 03:51:02;;;;;;;2.27;1.40;;;;;;;6.49;47.10;95142.31;8316873;28;20521;-72
2023/01/17 03:55:07;;;;;;;2.60;1.30;;;;;;;6.33;47.35;95141.81;8316738;28;20280;-72
2023/01/17 03:59:10;;;;;;;4.53;1.40;;;;;;;6.33;47.34;95141.81;8316793;28;20222;-71
2023/01/17 04:03:14;;;;;;;3.40;1.50;;;;;;;6.05;47.32;95154.91;8316652;28;20545;-72
2023/01/17 04:07:17;;;;;;;2.33;1.20;;;;;;;6.27;46.66;95158.50;8316190;28;20537;-72
2023/01/17 04:11:21;;;;;;;1.77;1.07;;;;;;;6.42;46.72;95149.69;8316144;28;20230;-72
2023/01/17 04:15:24;;;;;;;1.80;1.10;;;;;;;6.65;46.00;95154.91;8316241;28;20237;-72
2023/01/17 04:19:27;;;;;;;1.40;1.30;;;;;;;6.65;45.92;95153.13;8315982;28;20226;-72
2023/01/17 04:23:30;;;;;;;2.87;1.10;;;;;;;6.64;45.86;95151.50;8315968;28;20230;-72
2023/01/17 04:27:34;;;;;;;1.70;1.50;;;;;;;6.52;46.18;95156.72;8315699;28;20233;-73
2023/01/17 04:31:37;;;;;;;2.43;1.30;;;;;;;6.54;45.81;95154.84;8315488;28;20230;-72
2023/01/17 04:35:40;;;;;;;2.80;1.47;;;;;;;6.72;45.98;95144.97;8315222;28;20230;-72
2023/01/17 04:39:43;;;;;;;2.90;1.33;;;;;;;6.73;45.84;95164.63;8314956;28;20486;-72
2023/01/17 04:43:47;;;;;;;1.83;1.40;;;;;;;6.50;46.67;95158.59;8314860;28;20269;-73
2023/01/17 04:47:50;;;;;;;2.97;1.50;;;;;;;6.65;47.14;95183.19;8315028;28;20526;-72
2023/01/17 04:51:53;;;;;;;1.70;1.50;;;;;;;6.61;46.85;95187.72;8314802;28;20241;-72
2023/01/17 04:55:56;;;;;;;3.10;1.80;;;;;;;6.66;47.21;95200.22;8314655;28;20246;-72
2023/01/17 05:00:00;;;;;;;2.97;1.60;;;;;;;6.77;46.71;95196.91;8314763;28;20237;-72
2023/01/17 05:04:03;;;;;;;3.60;1.87;;;;;;;6.72;47.06;95207.53;8314548;28;20285;-72
2023/01/17 05:08:05;;;;;;;4.70;1.93;;;;;;;6.77;47.36;95200.28;8314306;28;20234;-73
2023/01/17 05:12:08;;;;;;;3.00;1.70;;;;;;;6.57;47.56;95206.06;8314449;28;20230;-72
2023/01/17 05:16:13;;;;;;;3.60;1.97;;;;;;;6.43;47.94;95207.03;8314347;28;20528;-72
2023/01/17 05:20:16;;;;;;;3.30;2.03;;;;;;;6.82;47.51;95213.63;8314404;28;20229;-72
2023/01/17 05:24:19;;;;;;;3.67;2.10;;;;;;;6.74;47.71;95218.53;8313669;28;20230;-72
2023/01/17 05:28:22;;;;;;;2.33;1.70;;;;;;;6.80;47.98;95217.25;8313926;28;20222;-72
2023/01/17 05:32:26;;;;;;;2.73;1.70;;;;;;;6.85;47.71;95212.56;8313922;28;20430;-72
2023/01/17 05:36:29;;;;;;;2.57;1.80;;;;;;;6.63;48.67;95223.63;8313685;28;20236;-72
2023/01/17 05:40:33;;;;;;;4.50;2.27;;;;;;;6.69;49.51;95209.50;8313376;28;20222;-72
2023/01/17 05:44:37;;;;;;;2.13;1.80;;;;;;;6.69;50.91;95235.22;8313654;28;20226;-72
2023/01/17 05:48:41;;;;;;;3.87;2.20;;;;;;;6.15;54.14;95221.03;8313605;28;20233;-73
2023/01/17 05:52:49;;;;;;;2.00;1.80;;;;;;;6.38;53.64;95234.84;8312590;28;20237;-73
2023/01/17 05:56:52;;;;;;;2.17;1.97;;;;;;;6.03;55.04;95235.56;8313446;28;20498;-73
2023/01/17 06:00:55;;;;;;;2.50;2.30;;;;;;;6.30;54.16;95255.94;8313429;28;20223;-72
2023/01/17 06:05:00;;;;;;;2.20;2.00;;;;;;;6.30;54.42;95253.34;8313242;28;20349;-74
2023/01/17 06:09:05;;;;;;;2.87;2.17;;;;;;;6.25;53.90;95261.41;8319205;28;20230;-74
2023/01/17 06:13:08;;;;;;;2.43;1.70;;;;;;;6.25;52.89;95250.31;8319692;28;20233;-72
2023/01/17 06:17:11;;;;;;;2.03;1.30;;;;;;;6.39;51.91;95257.84;8319867;28;20237;-72
2023/01/17 06:21:15;;;;;;;1.33;1.23;;;;;;;6.15;52.14;95260.41;8319627;28;20552;-72
2023/01/17 06:25:18;;;;;;;1.70;1.47;;;;;;;6.44;51.58;95253.22;8319454;28;20222;-72
2023/01/17 06:29:21;;;;;;;2.00;1.27;;;;;;;6.30;51.31;95242.25;8319076;28;20489;-71
2023/01/17 06:33:24;;;;;;;1.10;1.00;;;;;;;6.39;50.57;95239.84;8318983;28;20230;-71
2023/01/17 06:37:28;;;;;;;1.10;1.10;;;;;;;6.55;50.45;95239.59;8319235;28;20226;-72
2023/01/17 06:41:31;;;;;;;1.40;1.20;;;;;;;6.64;50.19;95233.81;8318919;28;20222;-73
2023/01/17 06:45:35;;;;;;;1.30;1.17;;;;;;;6.50;50.29;95220.28;8318964;28;20226;-73
2023/01/17 06:49:37;;;;;;;1.20;1.10;;;;;;;6.42;49.70;95234.50;8318961;28;20552;-73
2023/01/17 06:53:42;;;;;;;1.13;1.00;;;;;;;6.65;49.54;95232.84;8318369;28;20226;-73
2023/01/17 06:57:44;;;;;;;1.87;1.10;;;;;;;6.63;49.08;95245.00;8317965;28;20440;-73
2023/01/17 07:01:47;;;;;;;1.40;1.17;;;;;;;6.37;49.09;95253.75;8318300;28;20238;-73
2023/01/17 07:05:50;;;;;;;1.93;1.00;;;;;;;6.44;48.37;95258.34;8317688;28;20230;-74
2023/01/17 07:09:55;;;;;;;1.90;1.40;;;;;;;6.57;48.75;95260.88;8317455;28;20233;-74
2023/01/17 07:13:58;;;;;;;2.87;2.10;;;;;;;6.55;49.32;95270.47;8317934;28;20542;-74
2023/01/17 07:18:01;;;;;;;3.10;1.80;;;;;;;6.55;49.33;95273.03;8317630;28;20276;-73
2023/01/17 07:22:04;;;;;;;3.20;2.10;;;;;;;6.49;49.35;95272.63;8317560;28;20222;-75
2023/01/17 07:26:08;;;;;;;4.23;1.80;;;;;;;6.48;49.68;95268.44;8317693;28;20226;-74
2023/01/17 07:30:12;;;;;;;5.03;1.83;;;;;;;6.51;49.57;95274.19;8317455;28;20476;-74
2023/01/17 07:34:15;;;;;;;4.27;1.80;;;;;;;6.40;50.09;95271.56;8317104;28;20230;-74
2023/01/17 07:38:19;;;;;;;2.93;2.50;;;;;;;6.56;49.54;95268.69;8316703;28;20596;-73
2023/01/17 07:42:23;;;;;;;2.53;2.20;;;;;;;6.57;49.40;95271.16;8316711;28;20276;-74
2023/01/17 07:46:26;;;;;;;2.20;2.00;;;;;;;6.76;49.00;95262.97;8316478;28;20230;-74
2023/01/17 07:50:29;;;;;;;3.00;2.43;;;;;;;6.63;48.96;95249.34;8316444;28;20281;-74
2023/01/17 07:54:32;;;;;;;4.30;2.17;;;;;;;6.73;49.49;95264.94;8316185;28;20526;-74
2023/01/17 07:58:36;;;;;;;2.50;2.30;;;;;;;6.84;49.48;95273.50;8316019;28;20234;-74
2023/01/17 08:02:39;;;;;;;4.17;2.60;;;;;;;6.94;49.46;95236.81;8316333;28;20237;-74
2023/01/17 08:06:46;;;;;;;5.10;1.80;;;;;;;9.57;63.15;95267.91;8315406;28;20424;-72
2023/01/17 08:10:50;;;;;;;5.30;1.90;;;;;;;12.22;58.88;95260.13;8315902;28;20233;-73
2023/01/17 08:14:54;;;;;;;3.87;2.57;;;;;;;11.97;46.13;95259.03;8315731;28;20553;-73
2023/01/17 08:18:57;;;;;;;3.30;2.47;;;;;;;9.15;43.92;95260.97;8315793;28;20429;-74
2023/01/17 08:23:00;;;;;;;2.57;2.33;;;;;;;8.76;45.04;95260.69;8315765;28;20243;-73
2023/01/17 08:27:02;;;;;;;2.90;2.60;;;;;;;8.04;46.62;95250.88;8315619;28;20242;-72
2023/01/17 08:31:10;;;;;;;4.00;3.07;;;;;;;7.54;47.70;95248.66;8314997;28;20231;-73
2023/01/17 08:35:13;;;;;;;4.47;3.10;;;;;;;7.64;48.01;95252.16;8315456;28;20242;-73
2023/01/17 08:39:15;;;;;;;3.00;2.70;;;;;;;7.60;48.11;95247.38;8314891;28;20518;-73
2023/01/17 08:43:18;;;;;;;3.90;2.53;;;;;;;7.64;47.69;95251.34;8315236;28;20241;-72
2023/01/17 08:47:23;;;;;;;2.97;2.57;;;;;;;8.49;46.79;95255.13;8315153;28;20229;-72
2023/01/17 08:51:27;;;;;;;5.53;2.97;;;;;;;8.98;45.15;95225.41;8314831;28;20553;-72
2023/01/17 08:55:30;;;;;;;4.47;2.60;;;;;;;8.06;46.42;95246.41;8314776;28;20237;-73
2023/01/17 08:59:33;;;;;;;4.13;3.17;;;;;;;8.20;46.33;95258.22;8315091;28;20268;-73
2023/01/17 09:03:37;;;;;;;4.07;2.97;;;;;;;8.09;46.33;95258.22;8314966;28;20230;-72
2023/01/17 09:07:42;;;;;;;5.40;3.00;;;;;;;7.92;46.29;95257.78;8314200;28;20813;-73
2023/01/17 09:11:45;;;;;;;3.70;2.63;;;;;;;7.76;46.86;95263.28;8314345;28;20225;-72
2023/01/17 09:15:48;;;;;;;5.17;2.77;;;;;;;7.78;46.23;95251.09;8314124;28;20226;-73
2023/01/17 09:19:52;;;;;;;3.50;2.73;;;;;;;7.92;46.16;95247.47;8314453;28;20529;-73
2023/01/17 09:23:55;;;;;;;4.37;2.53;;;;;;;7.94;46.40;95247.34;8314230;28;20226;-73
2023/01/17 09:27:58;;;;;;;3.90;2.90;;;;;;;8.17;46.13;95253.31;8313891;28;20230;-72
2023/01/17 09:32:01;;;;;;;4.63;2.80;;;;;;;8.21;45.83;95252.13;8313883;28;20244;-72
2023/01/17 09:36:05;;;;;;;4.33;2.90;;;;;;;8.27;46.15;95261.16;8313788;28;20237;-72
2023/01/17 09:40:12;;;;;;;3.47;2.67;;;;;;;8.20;45.34;95253.06;8313235;28;20222;-72
2023/01/17 09:44:23;;;;;;;4.03;2.90;;;;;;;8.40;45.74;95248.94;8313353;28;20545;-72
2023/01/17 09:48:31;;;;;;;4.87;2.90;;;;;;;8.73;45.57;95248.03;8313795;28;20248;-72
2023/01/17 09:52:36;;;;;;;8.07;2.77;;;;;;;8.75;44.80;95253.06;8313716;28;20231;-72
2023/01/17 09:56:43;;;;;;;3.90;2.90;;;;;;;8.48;45.07;95241.44;8313454;28;20420;-72
2023/01/17 10:00:53;;;;;;;7.23;2.50;;;;;;;8.46;45.46;95240.72;8313129;28;20222;-72
2023/01/17 10:05:09;;;;;;;5.00;2.50;;;;;;;8.84;44.51;95252.31;8313372;28;20254;-72
2023/01/17 10:09:32;;;;;;;3.63;2.27;;;;;;;9.08;43.56;95246.09;8313010;28;20245;-72
2023/01/17 10:13:43;;;;;;;4.00;2.53;;;;;;;9.53;42.66;95235.50;8313235;28;20285;-72
2023/01/17 10:17:54;;;;;;;2.73;2.23;;;;;;;9.52;42.44;95231.28;8312990;28;20223;-72
2023/01/17 10:22:12;;;;;;;4.43;2.60;;;;;;;9.29;41.88;95223.72;8313355;28;20300;-72
2023/01/17 10:26:18;;;;;;;3.80;2.50;;;;;;;9.03;42.23;95223.25;8313302;28;20231;-72
2023/01/17 10:30:24;;;;;;;4.27;2.40;;;;;;;9.53;41.58;95222.59;8313037;28;20534;-72
2023/01/17 10:34:33;;;;;;;2.77;2.00;;;;;;;10.17;39.71;95218.91;8312989;28;20230;-72
2023/01/17 10:38:37;;;;;;;3.43;2.10;;;;;;;8.94;41.24;95196.44;8312833;28;20270;-72
2023/01/17 10:42:46;;;;;;;2.80;1.87;;;;;;;10.32;39.03;95207.25;8312762;28;20228;-72
2023/01/17 10:46:53;;;;;;;2.60;2.07;;;;;;;9.84;39.66;95200.13;8312451;28;20322;-72
2023/01/17 10:50:59;;;;;;;3.30;2.40;;;;;;;10.54;39.64;95216.53;8312556;28;20250;-72
2023/01/17 10:55:10;;;;;;;3.03;2.00;;;;;;;10.25;38.53;95156.97;8317453;28;20233;-72
2023/01/17 10:59:20;;;;;;;3.53;2.13;;;;;;;9.73;39.20;95210.59;8318647;28;20236;-72
2023/01/17 11:03:26;;;;;;;3.03;1.90;;;;;;;10.12;39.18;95218.47;8318474;28;20236;-73
2023/01/17 11:07:29;;;;;;;2.50;1.80;;;;;;;9.65;38.93;95210.41;8318084;28;20232;-71
2023/01/17 11:11:35;;;;;;;2.77;1.70;;;;;;;9.53;39.69;95204.50;8318218;28;20243;-72
2023/01/17 11:15:40;;;;;;;2.17;1.90;;;;;;;9.76;38.03;95187.06;8317723;28;20243;-72
2023/01/17 11:19:47;;;;;;;3.40;2.10;;;;;;;9.53;38.79;95184.66;8317267;28;20423;-72
2023/01/17 11:23:53;;;;;;;3.50;2.00;;;;;;;10.06;37.83;95165.50;8317569;28;20239;-73
2023/01/17 11:28:02;;;;;;;2.53;1.80;;;;;;;10.10;36.27;95166.06;8317641;28;20448;-71
2023/01/17 11:32:30;;;;;;;1.87;1.27;;;;;;;9.84;35.51;95155.38;8317510;28;20419;-71
2023/01/17 11:36:34;;;;;;;2.17;1.60;;;;;;;10.18;35.64;95155.88;8309212;28;20233;-72
2023/01/17 11:40:38;;;;;;;3.73;2.00;;;;;;;10.09;36.70;95148.91;8317429;28;20225;-73
2023/01/17 11:44:41;;;;;;;3.13;2.00;;;;;;;10.04;37.84;95135.56;8316558;28;20232;-73
2023/01/17 11:48:50;;;;;;;3.10;2.20;;;;;;;9.97;36.37;95133.50;8316830;28;20233;-72
2023/01/17 11:53:05;;;;;;;3.00;1.73;;;;;;;9.90;36.14;95137.59;8316999;28;20235;-72
2023/01/17 11:57:20;;;;;;;3.30;1.70;;;;;;;10.01;35.66;95109.97;8316501;28;20230;-72
2023/01/17 12:01:33;;;;;;;1.97;1.70;;;;;;;10.02;35.81;95116.81;8316774;28;20556;-71
2023/01/17 12:05:54;;;;;;;2.60;1.67;;;;;;;9.86;36.39;95104.38;8315715;28;20530;-73
2023/01/17 12:10:04;;;;;;;2.73;1.77;;;;;;;10.03;35.64;95116.63;8315803;28;20233;-71
2023/01/17 12:14:15;;;;;;;2.17;1.50;;;;;;;9.79;35.54;95109.28;8316091;28;20539;-71
2023/01/17 12:18:27;;;;;;;2.83;1.70;;;;;;;9.90;34.81;95119.50;8316090;28;20231;-70
2023/01/17 12:23:02;;;;;;;1.83;1.10;;;;;;;9.04;32.98;95115.66;8315864;28;20235;-69
2023/01/17 12:27:11;;;;;;;1.40;1.20;;;;;;;8.64;34.77;95124.13;8304273;28;20413;-71
2023/01/17 12:31:22;;;;;;;2.67;1.63;;;;;;;8.82;35.04;95121.78;8315526;28;20233;-72
2023/01/17 12:35:28;;;;;;;2.50;1.43;;;;;;;8.82;36.08;95124.38;8315567;28;20247;-72
2023/01/17 12:39:36;;;;;;;1.70;1.60;;;;;;;8.31;36.87;95124.13;8315607;28;20223;-72
2023/01/17 12:43:40;;;;;;;3.40;1.87;;;;;;;8.63;36.63;95118.13;8315248;28;20222;-72
2023/01/17 12:47:46;;;;;;;3.33;2.03;;;;;;;8.28;37.30;95077.13;8314741;28;20223;-72
2023/01/17 12:51:53;;;;;;;4.27;2.60;;;;;;;8.66;37.05;95099.81;8315589;28;20230;-72
2023/01/17 12:56:00;;;;;;;1.70;1.57;;;;;;;8.65;36.64;95087.88;8315122;28;20234;-72
2023/01/17 13:00:07;;;;;;;2.50;1.80;;;;;;;8.60;36.12;95080.53;8315344;28;20218;-72
2023/01/17 13:04:17;;;;;;;2.53;1.63;;;;;;;8.57;37.41;95069.63;8314909;28;20226;-72
2023/01/17 13:08:25;;;;;;;2.67;1.53;;;;;;;8.52;35.73;95069.19;8314406;28;20241;-72
2023/01/17 13:12:32;;;;;;;1.80;1.50;;;;;;;8.61;34.68;95078.75;8314572;28;20527;-72
2023/01/17 13:16:39;;;;;;;1.97;1.50;;;;;;;8.64;35.35;95091.38;8313818;28;20500;-71
2023/01/17 13:21:04;;;;;;;1.80;1.50;;;;;;;8.55;35.63;95069.75;8313748;28;20441;-72
2023/01/17 13:25:19;;;;;;;3.80;1.60;;;;;;;8.87;33.32;95070.59;8314389;28;20236;-72
2023/01/17 13:29:31;;;;;;;2.07;1.70;;;;;;;8.95;34.20;95065.63;8314017;28;20234;-72
2023/01/17 13:33:49;;;;;;;3.33;1.50;;;;;;;9.35;34.01;95062.25;8314092;28;20226;-71
2023/01/17 13:38:20;;;;;;;2.17;1.37;;;;;;;9.64;32.75;95058.94;8314305;28;20232;-72
2023/01/17 13:42:25;;;;;;;2.67;1.40;;;;;;;9.98;32.15;95074.88;8292421;28;20532;-73
2023/01/17 13:46:31;;;;;;;2.03;1.23;;;;;;;10.21;31.11;95059.09;8313609;28;20232;-72
2023/01/17 13:50:47;;;;;;;4.13;1.50;;;;;;;10.12;30.48;95040.84;8313800;28;20232;-70
2023/01/17 13:54:50;;;;;;;2.07;1.57;;;;;;;9.95;31.29;95046.72;8313012;28;20234;-70
2023/01/17 13:59:01;;;;;;;3.03;1.60;;;;;;;9.84;31.87;95044.25;8313450;28;20232;-71
2023/01/17 14:03:10;;;;;;;5.37;1.77;;;;;;;9.52;33.36;95043.53;8312920;28;20274;-72
2023/01/17 14:07:24;;;;;;;4.70;1.80;;;;;;;9.80;32.92;95033.34;8312620;28;20231;-71
2023/01/17 14:11:27;;;;;;;3.33;1.90;;;;;;;9.41;33.33;95035.09;8313139;28;20231;-71
2023/01/17 14:15:32;;;;;;;5.47;3.40;;;;;;;8.96;33.78;95005.31;8312898;28;20247;-71
2023/01/17 14:19:37;;;;;;;2.70;2.20;;;;;;;9.23;33.04;95021.97;8312573;28;20238;-71
2023/01/17 14:24:03;;;;;;;4.93;2.70;;;;;;;8.82;34.37;95001.31;8312910;28;20551;-72
2023/01/17 14:28:18;;;;;;;3.73;2.53;;;;;;;8.85;35.11;94995.88;8315290;28;20222;-72
2023/01/17 14:32:23;;;;;;;4.10;2.37;;;;;;;9.07;34.40;94989.72;8318182;28;20227;-71
2023/01/17 14:36:31;;;;;;;4.77;2.70;;;;;;;9.00;35.36;94991.19;8319047;28;20225;-71
2023/01/17 14:40:38;;;;;;;5.33;2.70;;;;;;;8.94;36.01;94989.94;8318807;28;20228;-72
2023/01/17 14:44:41;;;;;;;3.47;2.17;;;;;;;8.84;36.87;94977.97;8318261;28;20233;-71
2023/01/17 14:48:44;;;;;;;3.97;2.23;;;;;;;8.71;37.60;94965.28;8317954;28;20494;-72
2023/01/17 14:52:50;;;;;;;3.60;2.20;;;;;;;8.58;37.20;94963.72;8318654;28;20526;-72
2023/01/17 14:56:53;;;;;;;3.37;2.00;;;;;;;8.58;37.62;94962.94;8317970;28;20230;-72
2023/01/17 15:00:58;;;;;;;2.30;2.10;;;;;;;8.38;38.30;94942.19;8318129;28;20341;-72
2023/01/17 15:05:01;;;;;;;2.17;1.60;;;;;;;8.25;38.20;94964.78;8318302;28;20277;-71
2023/01/17 15:09:11;;;;;;;7.20;4.37;;;;;;;8.33;37.54;94967.53;8318178;28;20293;-71
2023/01/17 15:13:17;;;;;;;3.03;1.67;;;;;;;8.32;38.41;94968.47;8318291;28;20233;-71
2023/01/17 15:17:24;;;;;;;2.30;1.90;;;;;;;8.26;38.22;94963.81;8317877;28;20584;-71
2023/01/17 15:21:30;;;;;;;3.60;2.10;;;;;;;8.03;38.54;94950.25;8318210;28;20237;-71
2023/01/17 15:25:34;;;;;;;8.07;2.20;;;;;;;8.03;38.67;94948.50;8317619;28;20230;-71
2023/01/17 15:29:37;;;;;;;4.37;2.13;;;;;;;8.01;39.25;94957.28;8317525;28;20229;-71
2023/01/17 15:33:42;;;;;;;3.40;1.60;;;;;;;7.98;38.99;94958.38;8317185;28;20233;-71
2023/01/17 15:37:45;;;;;;;3.77;2.10;;;;;;;8.00;38.96;94960.81;8316610;28;20230;-71
2023/01/17 15:41:51;;;;;;;3.70;1.77;;;;;;;7.77;39.29;94953.19;8316876;28;20442;-71
2023/01/17 15:45:55;;;;;;;4.50;1.90;;;;;;;7.63;39.71;94956.06;8316633;28;20226;-70
2023/01/17 15:49:59;;;;;;;5.83;2.00;;;;;;;6.98;39.75;94886.53;8316770;28;20230;-71
2023/01/17 15:54:26;;;;;;;3.23;2.10;;;;;;;7.52;40.44;94956.09;8316534;28;20237;-71
2023/01/17 15:58:31;;;;;;;3.47;2.10;;;;;;;7.47;40.03;94958.25;8316201;28;20579;-69
2023/01/17 16:02:40;;;;;;;2.70;2.17;;;;;;;7.39;40.22;94944.22;8315973;28;20270;-70
2023/01/17 16:06:45;;;;;;;4.30;2.90;;;;;;;7.40;40.34;94950.19;8315090;28;20234;-70
2023/01/17 16:10:53;;;;;;;3.53;2.83;;;;;;;7.41;40.83;94944.13;8315985;28;20238;-69
2023/01/17 16:14:57;;;;;;;4.00;2.87;;;;;;;7.34;41.13;94942.97;8315713;28;20250;-70
2023/01/17 16:19:14;;;;;;;5.03;4.20;;;;;;;7.46;40.74;94949.69;8315896;28;20513;-70
2023/01/17 16:23:17;;;;;;;12.40;7.70;;;;;;;7.36;41.68;94941.06;8315957;28;20233;-70
2023/01/17 16:27:20;;;;;;;11.17;7.03;;;;;;;7.35;41.87;94949.72;8315898;28;20226;-70
2023/01/17 16:31:24;;;;;;;15.40;9.33;;;;;;;7.38;42.07;94955.44;8315996;28;20245;-71
2023/01/17 16:35:29;;;;;;;8.80;5.60;;;;;;;7.11;41.84;94945.59;8315376;28;20530;-71
2023/01/17 16:39:32;;;;;;;4.77;2.87;;;;;;;7.19;41.60;94950.13;8315711;28;20545;-71
2023/01/17 16:43:36;;;;;;;5.10;3.23;;;;;;;7.19;41.61;94955.28;8315313;28;20230;-71
2023/01/17 16:47:41;;;;;;;4.60;2.67;;;;;;;7.28;41.40;94967.44;8315152;28;20237;-71
2023/01/17 16:51:46;;;;;;;5.60;2.93;;;;;;;7.09;41.56;94960.34;8313967;28;20222;-72
2023/01/17 16:55:49;;;;;;;7.10;4.70;;;;;;;7.24;41.08;94969.44;8314760;28;20222;-72
2023/01/17 16:59:52;;;;;;;4.97;3.83;;;;;;;7.21;41.29;94979.13;8313780;28;20222;-71
2023/01/17 17:03:56;;;;;;;5.90;3.97;;;;;;;7.11;41.67;94962.78;8314263;28;20226;-71
2023/01/17 17:07:59;;;;;;;7.10;4.40;;;;;;;7.26;41.82;94983.94;8314316;28;20257;-71
2023/01/17 17:12:03;;;;;;;6.23;4.73;;;;;;;7.17;41.71;94980.31;8314423;28;20226;-71
2023/01/17 17:16:11;;;;;;;10.87;5.13;;;;;;;7.20;41.56;94977.53;8314224;28;20225;-71
2023/01/17 17:20:16;;;;;;;7.97;5.37;;;;;;;7.02;41.40;94975.41;8314159;28;20339;-71
2023/01/17 17:24:18;;;;;;;7.60;4.90;;;;;;;6.95;41.24;94969.13;8314277;28;20226;-71
2023/01/17 17:28:21;;;;;;;7.17;5.07;;;;;;;7.04;41.47;94968.44;8314087;28;20230;-72
2023/01/17 17:32:24;;;;;;;8.50;5.20;;;;;;;7.07;41.75;94969.13;8313887;28;20281;-71
2023/01/17 17:36:28;;;;;;;5.83;3.90;;;;;;;6.84;41.45;94964.00;8313585;28;20237;-71
2023/01/17 17:40:34;;;;;;;6.33;3.90;;;;;;;6.58;42.04;94966.81;8313788;28;20222;-71
2023/01/17 17:44:37;;;;;;;5.83;3.57;;;;;;;6.78;41.67;94965.28;8313276;28;20253;-71
2023/01/17 17:48:40;;;;;;;7.27;3.27;;;;;;;6.75;42.01;94968.09;8313773;28;20222;-71
2023/01/17 17:52:44;;;;;;;5.27;4.00;;;;;;;6.73;42.55;94969.97;8312904;28;20609;-71
2023/01/17 17:56:47;;;;;;;4.23;3.63;;;;;;;6.91;42.64;94972.03;8313215;28;20230;-72
2023/01/17 18:00:50;;;;;;;5.13;3.43;;;;;;;6.68;42.27;94976.41;8313092;28;20226;-71
2023/01/17 18:04:53;;;;;;;4.90;3.13;;;;;;;6.91;42.25;94978.03;8312511;28;20225;-70
2023/01/17 18:08:57;;;;;;;5.27;4.10;;;;;;;6.78;42.40;94985.88;8313974;28;20434;-70
2023/01/17 18:13:00;;;;;;;6.13;4.73;;;;;;;6.73;42.69;94972.53;8313833;28;20567;-71
2023/01/17 18:17:03;;;;;;;6.30;4.73;;;;;;;6.77;43.01;94983.41;8313536;28;20533;-71
2023/01/17 18:21:08;;;;;;;5.50;4.13;;;;;;;6.69;42.62;94975.47;8313464;28;20510;-71
2023/01/17 18:25:12;;;;;;;5.27;4.43;;;;;;;6.85;42.61;94974.19;8312872;28;20226;-71
2023/01/17 18:29:16;;;;;;;7.00;5.00;;;;;;;6.83;42.63;94983.78;8312941;28;20233;-70
2023/01/17 18:33:19;;;;;;;7.80;4.10;;;;;;;6.81;42.75;94988.19;8313073;28;20222;-70
2023/01/17 18:37:22;;;;;;;5.33;3.97;;;;;;;6.45;42.58;94928.38;8312732;28;20573;-71
2023/01/17 18:41:28;;;;;;;6.37;4.10;;;;;;;6.67;42.49;94980.72;8312700;28;20226;-73
2023/01/17 18:45:30;;;;;;;10.17;7.80;;;;;;;6.73;42.47;94975.09;8312636;28;20226;-72
2023/01/17 18:49:34;;;;;;;25.27;17.73;;;;;;;6.68;42.30;94977.19;8312723;28;20226;-72
2023/01/17 18:53:37;;;;;;;9.50;6.00;;;;;;;9.91;76.37;94978.13;8312511;28;20329;-73
2023/01/17 18:57:41;;;;;;;10.37;6.87;;;;;;;10.64;51.15;94982.78;8312502;28;20230;-74
2023/01/17 19:01:45;;;;;;;8.47;5.60;;;;;;;9.57;40.16;94979.34;8312374;28;20226;-73
2023/01/17 19:05:48;;;;;;;5.90;3.97;;;;;;;8.15;40.99;94977.59;8312514;28;20245;-73
2023/01/17 19:09:50;;;;;;;3.50;3.10;;;;;;;7.86;41.25;94968.84;8312489;28;20270;-74
2023/01/17 19:13:55;;;;;;;5.70;4.30;;;;;;;7.50;41.68;94976.00;8314276;28;20233;-74
2023/01/17 19:17:58;;;;;;;8.50;7.60;;;;;;;7.32;41.77;94973.16;8318001;28;20466;-71
2023/01/17 19:22:01;;;;;;;10.90;9.07;;;;;;;7.24;42.43;94979.72;8317710;28;20329;-72
2023/01/17 19:26:04;;;;;;;5.17;4.13;;;;;;;7.15;42.67;94984.78;8317695;28;20249;-72
2023/01/17 19:30:10;;;;;;;18.37;14.70;;;;;;;7.06;42.44;95001.72;8317694;28;20226;-72
2023/01/17 19:34:14;;;;;;;6.90;5.53;;;;;;;7.01;42.97;95009.00;8317135;28;20226;-73
2023/01/17 19:38:17;;;;;;;7.27;6.00;;;;;;;6.88;43.32;95021.19;8316784;28;20237;-74
2023/01/17 19:42:20;;;;;;;7.33;6.20;;;;;;;6.97;43.51;95020.47;8316916;28;20230;-74
2023/01/17 19:46:26;;;;;;;6.00;5.10;;;;;;;6.96;43.71;95018.84;8316961;28;20287;-74
2023/01/17 19:50:29;;;;;;;5.17;4.53;;;;;;;6.77;43.91;95012.50;8316968;28;20226;-74
2023/01/17 19:54:32;;;;;;;5.87;4.40;;;;;;;6.90;43.82;95017.53;8316590;28;20226;-74
2023/01/17 19:58:34;;;;;;;6.90;4.33;;;;;;;6.82;43.90;95017.31;8316496;28;20237;-74
2023/01/17 20:02:39;;;;;;;5.90;3.70;;;;;;;6.73;43.79;95016.25;8316646;28;20241;-74
2023/01/17 20:06:42;;;;;;;6.40;4.77;;;;;;;6.69;43.89;95017.44;8315957;28;20233;-74
2023/01/17 20:10:45;;;;;;;6.47;3.90;;;;;;;6.72;43.72;95024.94;8316251;28;20276;-74
2023/01/17 20:14:50;;;;;;;5.30;3.70;;;;;;;6.74;43.70;95030.75;8315767;28;20238;-74
2023/01/17 20:18:55;;;;;;;4.80;4.30;;;;;;;6.63;44.33;95025.63;8315808;28;20238;-74
2023/01/17 20:23:00;;;;;;;6.13;5.30;;;;;;;6.68;43.46;95015.78;8316002;28;20245;-74
2023/01/17 20:27:02;;;;;;;6.80;6.10;;;;;;;6.63;43.73;95026.44;8315010;28;20248;-74
2023/01/17 20:31:07;;;;;;;5.20;4.10;;;;;;;6.60;43.73;95026.66;8315667;28;20229;-74
2023/01/17 20:35:12;;;;;;;5.10;3.30;;;;;;;6.46;43.65;95024.31;8315584;28;20354;-74
2023/01/17 20:39:15;;;;;;;4.83;3.13;;;;;;;6.65;43.59;95023.75;8315242;28;20230;-74
2023/01/17 20:43:18;;;;;;;3.87;3.10;;;;;;;6.54;43.38;95021.97;8315126;28;20226;-74